This is the latest recevied weather packets stored in our database for station/object EA7DYY-12. If no packets are shown the sender has not sent any weather packets the latest 10 day(s).
| Time | Temp. | Humidity | Pressure | Rain* | Wind** | Luminosity | Snow |
|---|---|---|---|---|---|---|---|
| 1788013616 | 21.11° C | 50% | 1158.4 hPa | - | - | - | - |
| 1788012716 | 21.11° C | 50% | 1158.5 hPa | - | - | - | - |
| 1788011816 | 21.11° C | 49% | 1158.7 hPa | - | - | - | - |
| 1788010916 | 21.11° C | 48% | 1158.8 hPa | - | - | - | - |
| 1788010016 | 21.11° C | 49% | 1159 hPa | - | - | - | - |
| 1788009116 | 20.56° C | 49% | 1159.1 hPa | - | - | - | - |
| 1788008216 | 20.56° C | 48% | 1159.2 hPa | - | - | - | - |
| 1788007316 | 20.56° C | 48% | 1159.5 hPa | - | - | - | - |
| 1788006416 | 20.56° C | 48% | 1159.5 hPa | - | - | - | - |
| 1788005515 | 20.56° C | 48% | 1159.5 hPa | - | - | - | - |
| 1788004615 | 20.56° C | 48% | 1159.7 hPa | - | - | - | - |
| 1788003715 | 20.56° C | 49% | 1159.7 hPa | - | - | - | - |
| 1788002815 | 20.56° C | 47% | 1159.8 hPa | - | - | - | - |
| 1788001915 | 20.56° C | 49% | 1160 hPa | - | - | - | - |
| 1788001015 | 20.56° C | 49% | 1160.1 hPa | - | - | - | - |
| 1788000115 | 20° C | 48% | 1160.2 hPa | - | - | - | - |
| 1787999215 | 20° C | 49% | 1160.1 hPa | - | - | - | - |
| 1787998315 | 20° C | 50% | 1160.2 hPa | - | - | - | - |
| 1787997415 | 20° C | 49% | 1160.2 hPa | - | - | - | - |
| 1787996515 | 20° C | 50% | 1160.2 hPa | - | - | - | - |
| 1787995615 | 20° C | 51% | 1160.2 hPa | - | - | - | - |
| 1787994715 | 20° C | 52% | 1160.3 hPa | - | - | - | - |
| 1787991114 | 18.89° C | 59% | 1159.8 hPa | - | - | - | - |
| 1787968613 | 20° C | 59% | 1159.4 hPa | - | - | - | - |
| 1787962312 | 21.11° C | 58% | 1160.1 hPa | - | - | - | - |
* Rain since midnight (hover to see other rain measurements)
** Current wind speed in m/s (hover to see current wind gust speed)